sensor_id;sensor_type;location;lat;lon;timestamp;pressure;altitude;pressure_sealevel;temperature;humidity
65010;BME280;51556;50.002;22.014;2023-07-13T00:00:18;98885.95;;;20.63;72.05
65010;BME280;51556;50.002;22.014;2023-07-13T00:02:43;98887.38;;;20.54;72.14
65010;BME280;51556;50.002;22.014;2023-07-13T00:05:09;98889.37;;;20.46;72.34
65010;BME280;51556;50.002;22.014;2023-07-13T00:07:35;98878.88;;;20.41;72.57
65010;BME280;51556;50.002;22.014;2023-07-13T00:10:02;98870.89;;;20.40;72.71
65010;BME280;51556;50.002;22.014;2023-07-13T00:12:34;98871.73;;;20.41;72.74
65010;BME280;51556;50.002;22.014;2023-07-13T00:15:04;98867.45;;;20.43;72.76
65010;BME280;51556;50.002;22.014;2023-07-13T00:17:30;98861.42;;;20.43;72.69
65010;BME280;51556;50.002;22.014;2023-07-13T00:19:56;98861.36;;;20.41;72.74
65010;BME280;51556;50.002;22.014;2023-07-13T00:22:24;98867.33;;;20.42;72.80
65010;BME280;51556;50.002;22.014;2023-07-13T00:24:54;98868.45;;;20.46;72.70
65010;BME280;51556;50.002;22.014;2023-07-13T00:27:23;98858.83;;;20.51;72.61
65010;BME280;51556;50.002;22.014;2023-07-13T00:29:52;98847.58;;;20.55;72.44
65010;BME280;51556;50.002;22.014;2023-07-13T00:32:18;98837.71;;;20.56;72.36
65010;BME280;51556;50.002;22.014;2023-07-13T00:34:46;98844.64;;;20.56;72.37
65010;BME280;51556;50.002;22.014;2023-07-13T00:37:12;98846.25;;;20.56;72.36
65010;BME280;51556;50.002;22.014;2023-07-13T00:39:38;98838.77;;;20.53;72.27
65010;BME280;51556;50.002;22.014;2023-07-13T00:42:04;98826.00;;;20.50;72.41
65010;BME280;51556;50.002;22.014;2023-07-13T00:44:30;98828.37;;;20.47;72.35
65010;BME280;51556;50.002;22.014;2023-07-13T00:46:56;98828.46;;;20.45;72.41
65010;BME280;51556;50.002;22.014;2023-07-13T00:49:25;98827.38;;;20.43;72.60
65010;BME280;51556;50.002;22.014;2023-07-13T00:51:57;98831.06;;;20.42;72.43
65010;BME280;51556;50.002;22.014;2023-07-13T00:54:35;98830.87;;;20.40;72.66
65010;BME280;51556;50.002;22.014;2023-07-13T00:57:04;98823.09;;;20.39;72.72
65010;BME280;51556;50.002;22.014;2023-07-13T00:59:31;98821.44;;;20.40;72.74
65010;BME280;51556;50.002;22.014;2023-07-13T01:01:59;98816.67;;;20.38;72.76
65010;BME280;51556;50.002;22.014;2023-07-13T01:04:26;98815.73;;;20.39;72.91
65010;BME280;51556;50.002;22.014;2023-07-13T01:06:55;98817.90;;;20.41;72.89
65010;BME280;51556;50.002;22.014;2023-07-13T01:09:22;98825.65;;;20.35;72.94
65010;BME280;51556;50.002;22.014;2023-07-13T01:11:48;98822.58;;;20.33;72.98
65010;BME280;51556;50.002;22.014;2023-07-13T01:14:14;98815.58;;;20.31;73.18
65010;BME280;51556;50.002;22.014;2023-07-13T01:16:41;98809.41;;;20.28;72.96
65010;BME280;51556;50.002;22.014;2023-07-13T01:22:19;98799.06;;;20.25;73.12
65010;BME280;51556;50.002;22.014;2023-07-13T01:24:51;98800.02;;;20.24;73.15
65010;BME280;51556;50.002;22.014;2023-07-13T01:27:22;98813.60;;;20.26;72.95
65010;BME280;51556;50.002;22.014;2023-07-13T01:29:51;98819.88;;;20.26;73.09
65010;BME280;51556;50.002;22.014;2023-07-13T01:32:23;98823.92;;;20.27;73.13
65010;BME280;51556;50.002;22.014;2023-07-13T01:34:53;98828.83;;;20.23;73.38
65010;BME280;51556;50.002;22.014;2023-07-13T01:37:26;98833.69;;;20.21;73.48
65010;BME280;51556;50.002;22.014;2023-07-13T01:39:52;98838.23;;;20.19;73.60
65010;BME280;51556;50.002;22.014;2023-07-13T01:42:18;98837.70;;;20.17;73.77
65010;BME280;51556;50.002;22.014;2023-07-13T01:44:53;98833.59;;;20.12;73.93
65010;BME280;51556;50.002;22.014;2023-07-13T01:47:19;98837.04;;;20.09;74.16
65010;BME280;51556;50.002;22.014;2023-07-13T01:49:44;98843.38;;;20.08;74.27
65010;BME280;51556;50.002;22.014;2023-07-13T01:52:26;98842.37;;;20.02;74.61
65010;BME280;51556;50.002;22.014;2023-07-13T01:54:54;98840.77;;;19.99;74.90
65010;BME280;51556;50.002;22.014;2023-07-13T01:57:19;98841.40;;;20.00;74.90
65010;BME280;51556;50.002;22.014;2023-07-13T01:59:45;98844.84;;;20.03;75.05
65010;BME280;51556;50.002;22.014;2023-07-13T02:02:10;98857.88;;;20.02;75.49
65010;BME280;51556;50.002;22.014;2023-07-13T02:04:36;98874.02;;;19.96;75.77
65010;BME280;51556;50.002;22.014;2023-07-13T02:07:02;98868.96;;;19.95;75.86
65010;BME280;51556;50.002;22.014;2023-07-13T02:09:28;98862.02;;;19.95;75.85
65010;BME280;51556;50.002;22.014;2023-07-13T02:11:53;98861.65;;;19.97;75.82
65010;BME280;51556;50.002;22.014;2023-07-13T02:14:19;98863.73;;;20.03;76.13
65010;BME280;51556;50.002;22.014;2023-07-13T02:16:44;98871.40;;;20.06;75.96
65010;BME280;51556;50.002;22.014;2023-07-13T02:19:10;98873.44;;;20.10;76.13
65010;BME280;51556;50.002;22.014;2023-07-13T02:21:35;98880.89;;;20.13;75.98
65010;BME280;51556;50.002;22.014;2023-07-13T02:24:01;98890.04;;;20.15;75.80
65010;BME280;51556;50.002;22.014;2023-07-13T02:26:27;98885.54;;;20.18;75.94
65010;BME280;51556;50.002;22.014;2023-07-13T02:28:53;98887.84;;;20.21;75.91
65010;BME280;51556;50.002;22.014;2023-07-13T02:31:19;98887.27;;;20.24;75.95
65010;BME280;51556;50.002;22.014;2023-07-13T02:33:44;98883.48;;;20.31;76.00
65010;BME280;51556;50.002;22.014;2023-07-13T02:36:11;98876.55;;;20.41;75.92
65010;BME280;51556;50.002;22.014;2023-07-13T02:38:37;98870.58;;;20.47;75.53
65010;BME280;51556;50.002;22.014;2023-07-13T02:41:06;98864.45;;;20.47;75.45
65010;BME280;51556;50.002;22.014;2023-07-13T02:43:34;98863.52;;;20.43;75.66
65010;BME280;51556;50.002;22.014;2023-07-13T02:46:01;98864.93;;;20.38;75.80
65010;BME280;51556;50.002;22.014;2023-07-13T02:48:32;98861.84;;;20.34;75.95
65010;BME280;51556;50.002;22.014;2023-07-13T02:50:58;98854.42;;;20.35;75.94
65010;BME280;51556;50.002;22.014;2023-07-13T02:53:23;98855.36;;;20.44;76.09
65010;BME280;51556;50.002;22.014;2023-07-13T02:55:49;98864.58;;;20.48;75.70
65010;BME280;51556;50.002;22.014;2023-07-13T02:58:14;98868.73;;;20.47;75.76
65010;BME280;51556;50.002;22.014;2023-07-13T03:00:42;98871.88;;;20.48;75.67
65010;BME280;51556;50.002;22.014;2023-07-13T03:03:08;98873.48;;;20.48;75.62
65010;BME280;51556;50.002;22.014;2023-07-13T03:05:33;98881.70;;;20.48;75.65
65010;BME280;51556;50.002;22.014;2023-07-13T03:07:59;98891.87;;;20.49;75.63
65010;BME280;51556;50.002;22.014;2023-07-13T03:10:24;98894.98;;;20.48;75.65
65010;BME280;51556;50.002;22.014;2023-07-13T03:12:50;98898.02;;;20.47;75.69
65010;BME280;51556;50.002;22.014;2023-07-13T03:15:16;98900.66;;;20.51;75.78
65010;BME280;51556;50.002;22.014;2023-07-13T03:17:41;98899.20;;;20.51;75.48
65010;BME280;51556;50.002;22.014;2023-07-13T03:20:07;98903.59;;;20.47;75.75
65010;BME280;51556;50.002;22.014;2023-07-13T03:22:33;98902.45;;;20.46;75.73
65010;BME280;51556;50.002;22.014;2023-07-13T03:24:58;98895.61;;;20.46;75.73
65010;BME280;51556;50.002;22.014;2023-07-13T03:27:24;98885.58;;;20.49;75.72
65010;BME280;51556;50.002;22.014;2023-07-13T03:29:49;98883.60;;;20.47;75.75
65010;BME280;51556;50.002;22.014;2023-07-13T03:32:15;98885.23;;;20.44;75.75
65010;BME280;51556;50.002;22.014;2023-07-13T03:34:40;98896.08;;;20.40;75.82
65010;BME280;51556;50.002;22.014;2023-07-13T03:37:06;98898.34;;;20.36;76.35
65010;BME280;51556;50.002;22.014;2023-07-13T03:39:31;98900.48;;;20.33;76.38
65010;BME280;51556;50.002;22.014;2023-07-13T03:41:56;98899.65;;;20.30;77.06
65010;BME280;51556;50.002;22.014;2023-07-13T03:44:22;98903.96;;;20.27;77.48
65010;BME280;51556;50.002;22.014;2023-07-13T03:46:47;98901.51;;;20.24;77.60
65010;BME280;51556;50.002;22.014;2023-07-13T03:49:13;98902.98;;;20.21;77.88
65010;BME280;51556;50.002;22.014;2023-07-13T03:51:38;98899.48;;;20.20;77.84
65010;BME280;51556;50.002;22.014;2023-07-13T03:54:04;98902.45;;;20.21;77.89
65010;BME280;51556;50.002;22.014;2023-07-13T03:56:30;98903.38;;;20.23;78.17
65010;BME280;51556;50.002;22.014;2023-07-13T03:58:57;98899.63;;;20.23;78.19
65010;BME280;51556;50.002;22.014;2023-07-13T04:01:24;98888.87;;;20.23;78.25
65010;BME280;51556;50.002;22.014;2023-07-13T04:03:53;98878.86;;;20.26;78.23
65010;BME280;51556;50.002;22.014;2023-07-13T04:06:20;98865.42;;;20.29;78.47
65010;BME280;51556;50.002;22.014;2023-07-13T04:08:52;98848.36;;;20.32;78.44
65010;BME280;51556;50.002;22.014;2023-07-13T04:11:20;98841.14;;;20.33;78.75
65010;BME280;51556;50.002;22.014;2023-07-13T04:13:47;98844.09;;;20.38;79.00
65010;BME280;51556;50.002;22.014;2023-07-13T04:16:14;98835.97;;;20.41;79.24
65010;BME280;51556;50.002;22.014;2023-07-13T04:18:40;98837.20;;;20.48;79.25
65010;BME280;51556;50.002;22.014;2023-07-13T04:21:06;98838.20;;;20.56;79.37
65010;BME280;51556;50.002;22.014;2023-07-13T04:23:32;98842.70;;;20.61;79.27
65010;BME280;51556;50.002;22.014;2023-07-13T04:25:58;98846.83;;;20.63;79.12
65010;BME280;51556;50.002;22.014;2023-07-13T04:28:25;98847.34;;;20.63;79.41
65010;BME280;51556;50.002;22.014;2023-07-13T04:30:51;98854.56;;;20.60;79.31
65010;BME280;51556;50.002;22.014;2023-07-13T04:33:17;98854.58;;;20.59;79.49
65010;BME280;51556;50.002;22.014;2023-07-13T04:35:46;98857.55;;;20.58;79.53
65010;BME280;51556;50.002;22.014;2023-07-13T04:38:14;98857.59;;;20.57;79.67
65010;BME280;51556;50.002;22.014;2023-07-13T04:40:44;98871.41;;;20.59;79.79
65010;BME280;51556;50.002;22.014;2023-07-13T04:43:10;98879.73;;;20.60;79.83
65010;BME280;51556;50.002;22.014;2023-07-13T04:45:36;98882.70;;;20.61;79.95
65010;BME280;51556;50.002;22.014;2023-07-13T04:48:02;98885.92;;;20.64;79.95
65010;BME280;51556;50.002;22.014;2023-07-13T04:50:28;98892.35;;;20.66;80.02
65010;BME280;51556;50.002;22.014;2023-07-13T04:52:53;98897.54;;;20.69;80.15
65010;BME280;51556;50.002;22.014;2023-07-13T04:55:19;98909.09;;;20.75;80.19
65010;BME280;51556;50.002;22.014;2023-07-13T04:57:53;98918.00;;;20.78;80.37
65010;BME280;51556;50.002;22.014;2023-07-13T05:00:21;98931.18;;;20.83;80.35
65010;BME280;51556;50.002;22.014;2023-07-13T05:02:46;98939.51;;;20.84;80.32
65010;BME280;51556;50.002;22.014;2023-07-13T05:05:12;98947.30;;;20.85;80.43
65010;BME280;51556;50.002;22.014;2023-07-13T05:07:38;98948.39;;;20.90;80.39
65010;BME280;51556;50.002;22.014;2023-07-13T05:10:04;98945.38;;;20.94;80.45
65010;BME280;51556;50.002;22.014;2023-07-13T05:12:30;98948.47;;;21.01;80.56
65010;BME280;51556;50.002;22.014;2023-07-13T05:14:58;98943.95;;;21.06;80.27
65010;BME280;51556;50.002;22.014;2023-07-13T05:17:26;98950.44;;;21.10;80.40
65010;BME280;51556;50.002;22.014;2023-07-13T05:19:52;98951.73;;;21.17;80.45
65010;BME280;51556;50.002;22.014;2023-07-13T05:22:20;98956.97;;;21.23;80.17
65010;BME280;51556;50.002;22.014;2023-07-13T05:24:45;98968.56;;;21.31;79.91
65010;BME280;51556;50.002;22.014;2023-07-13T05:27:11;98971.52;;;21.34;79.54
65010;BME280;51556;50.002;22.014;2023-07-13T05:29:36;98974.52;;;21.38;79.32
65010;BME280;51556;50.002;22.014;2023-07-13T05:32:04;98967.58;;;21.40;79.49
65010;BME280;51556;50.002;22.014;2023-07-13T05:34:30;98974.92;;;21.44;79.28
65010;BME280;51556;50.002;22.014;2023-07-13T05:36:56;98978.35;;;21.51;79.24
65010;BME280;51556;50.002;22.014;2023-07-13T05:39:22;98971.30;;;21.58;78.84
65010;BME280;51556;50.002;22.014;2023-07-13T05:41:53;98969.48;;;21.63;78.63
65010;BME280;51556;50.002;22.014;2023-07-13T05:44:39;98958.89;;;21.68;78.30
65010;BME280;51556;50.002;22.014;2023-07-13T05:47:07;98953.62;;;21.72;78.07
65010;BME280;51556;50.002;22.014;2023-07-13T05:49:33;98948.80;;;21.76;77.82
65010;BME280;51556;50.002;22.014;2023-07-13T05:52:01;98945.77;;;21.78;77.71
65010;BME280;51556;50.002;22.014;2023-07-13T05:54:26;98941.39;;;21.84;77.61
65010;BME280;51556;50.002;22.014;2023-07-13T05:56:58;98944.97;;;21.92;77.73
65010;BME280;51556;50.002;22.014;2023-07-13T05:59:26;98943.41;;;22.06;77.82
65010;BME280;51556;50.002;22.014;2023-07-13T06:01:52;98935.65;;;22.20;77.63
65010;BME280;51556;50.002;22.014;2023-07-13T06:04:18;98940.17;;;22.33;77.14
65010;BME280;51556;50.002;22.014;2023-07-13T06:06:44;98942.35;;;22.41;76.65
65010;BME280;51556;50.002;22.014;2023-07-13T06:09:09;98943.13;;;22.47;76.12
65010;BME280;51556;50.002;22.014;2023-07-13T06:11:38;98949.27;;;22.53;76.11
65010;BME280;51556;50.002;22.014;2023-07-13T06:14:06;98950.09;;;22.61;75.83
65010;BME280;51556;50.002;22.014;2023-07-13T06:16:34;98949.83;;;22.71;75.28
65010;BME280;51556;50.002;22.014;2023-07-13T06:19:00;98952.70;;;22.77;75.16
65010;BME280;51556;50.002;22.014;2023-07-13T06:21:26;98951.92;;;22.85;75.03
65010;BME280;51556;50.002;22.014;2023-07-13T06:23:52;98952.89;;;22.93;74.22
65010;BME280;51556;50.002;22.014;2023-07-13T06:26:19;98949.02;;;22.94;73.95
65010;BME280;51556;50.002;22.014;2023-07-13T06:28:45;98942.04;;;22.96;73.99
65010;BME280;51556;50.002;22.014;2023-07-13T06:31:13;98933.27;;;22.98;73.66
65010;BME280;51556;50.002;22.014;2023-07-13T06:33:39;98934.52;;;23.00;73.74
65010;BME280;51556;50.002;22.014;2023-07-13T06:36:06;98928.33;;;23.03;73.55
65010;BME280;51556;50.002;22.014;2023-07-13T06:38:33;98922.72;;;23.01;73.48
65010;BME280;51556;50.002;22.014;2023-07-13T06:40:58;98918.64;;;23.03;73.35
65010;BME280;51556;50.002;22.014;2023-07-13T06:43:24;98916.11;;;23.05;73.33
65010;BME280;51556;50.002;22.014;2023-07-13T06:45:51;98915.96;;;23.13;73.74
65010;BME280;51556;50.002;22.014;2023-07-13T06:48:20;98911.29;;;23.20;72.96
65010;BME280;51556;50.002;22.014;2023-07-13T06:50:50;98906.20;;;23.22;73.04
65010;BME280;51556;50.002;22.014;2023-07-13T06:53:17;98903.44;;;23.30;73.25
65010;BME280;51556;50.002;22.014;2023-07-13T06:55:44;98900.12;;;23.39;73.20
65010;BME280;51556;50.002;22.014;2023-07-13T06:58:10;98899.76;;;23.46;72.78
65010;BME280;51556;50.002;22.014;2023-07-13T07:00:35;98897.45;;;23.51;72.61
65010;BME280;51556;50.002;22.014;2023-07-13T07:03:01;98897.63;;;23.60;72.22
65010;BME280;51556;50.002;22.014;2023-07-13T07:05:27;98892.19;;;23.69;72.07
65010;BME280;51556;50.002;22.014;2023-07-13T07:07:54;98892.98;;;23.80;72.01
65010;BME280;51556;50.002;22.014;2023-07-13T07:10:20;98894.17;;;23.91;71.65
65010;BME280;51556;50.002;22.014;2023-07-13T07:12:46;98890.31;;;23.98;71.48
65010;BME280;51556;50.002;22.014;2023-07-13T07:15:19;98890.25;;;24.11;71.33
65010;BME280;51556;50.002;22.014;2023-07-13T07:17:44;98882.42;;;24.22;70.60
65010;BME280;51556;50.002;22.014;2023-07-13T07:20:10;98876.70;;;24.30;70.72
65010;BME280;51556;50.002;22.014;2023-07-13T07:22:39;98876.95;;;24.41;70.66
65010;BME280;51556;50.002;22.014;2023-07-13T07:25:05;98871.36;;;24.47;70.25
65010;BME280;51556;50.002;22.014;2023-07-13T07:27:30;98875.58;;;24.54;69.85
65010;BME280;51556;50.002;22.014;2023-07-13T07:29:59;98881.42;;;24.61;69.54
65010;BME280;51556;50.002;22.014;2023-07-13T07:32:24;98884.26;;;24.68;69.39
65010;BME280;51556;50.002;22.014;2023-07-13T07:34:50;98889.36;;;24.77;69.04
65010;BME280;51556;50.002;22.014;2023-07-13T07:37:16;98893.98;;;24.82;68.62
65010;BME280;51556;50.002;22.014;2023-07-13T07:39:45;98892.58;;;24.87;68.50
65010;BME280;51556;50.002;22.014;2023-07-13T07:42:13;98901.16;;;24.93;68.42
65010;BME280;51556;50.002;22.014;2023-07-13T07:44:42;98899.36;;;24.95;67.94
65010;BME280;51556;50.002;22.014;2023-07-13T07:47:08;98901.37;;;24.99;67.90
65010;BME280;51556;50.002;22.014;2023-07-13T07:49:43;98902.52;;;25.04;67.86
65010;BME280;51556;50.002;22.014;2023-07-13T07:52:08;98906.30;;;25.06;67.68
65010;BME280;51556;50.002;22.014;2023-07-13T07:54:34;98909.51;;;25.10;67.58
65010;BME280;51556;50.002;22.014;2023-07-13T07:56:59;98912.67;;;25.15;67.65
65010;BME280;51556;50.002;22.014;2023-07-13T07:59:25;98903.02;;;25.22;67.52
65010;BME280;51556;50.002;22.014;2023-07-13T08:01:53;98900.65;;;25.28;67.54
65010;BME280;51556;50.002;22.014;2023-07-13T08:04:19;98902.52;;;25.35;67.75
65010;BME280;51556;50.002;22.014;2023-07-13T08:06:44;98899.14;;;25.42;67.23
65010;BME280;51556;50.002;22.014;2023-07-13T08:09:10;98896.58;;;25.47;67.20
65010;BME280;51556;50.002;22.014;2023-07-13T08:11:35;98896.86;;;25.53;67.37
65010;BME280;51556;50.002;22.014;2023-07-13T08:14:01;98901.23;;;25.60;67.04
65010;BME280;51556;50.002;22.014;2023-07-13T08:16:27;98899.69;;;25.67;66.77
65010;BME280;51556;50.002;22.014;2023-07-13T08:18:52;98895.16;;;25.71;66.42
65010;BME280;51556;50.002;22.014;2023-07-13T08:21:18;98891.62;;;25.78;66.69
65010;BME280;51556;50.002;22.014;2023-07-13T08:23:45;98889.27;;;25.85;66.22
65010;BME280;51556;50.002;22.014;2023-07-13T08:26:11;98888.13;;;25.88;66.09
65010;BME280;51556;50.002;22.014;2023-07-13T08:28:37;98893.59;;;25.97;65.40
65010;BME280;51556;50.002;22.014;2023-07-13T08:31:04;98892.11;;;25.97;66.00
65010;BME280;51556;50.002;22.014;2023-07-13T08:33:30;98894.75;;;26.09;65.83
65010;BME280;51556;50.002;22.014;2023-07-13T08:35:56;98897.90;;;26.21;65.38
65010;BME280;51556;50.002;22.014;2023-07-13T08:38:22;98900.19;;;26.33;64.94
65010;BME280;51556;50.002;22.014;2023-07-13T08:40:52;98902.31;;;26.44;64.36
65010;BME280;51556;50.002;22.014;2023-07-13T08:43:25;98904.44;;;26.57;64.45
65010;BME280;51556;50.002;22.014;2023-07-13T08:46:24;98897.45;;;26.70;63.56
65010;BME280;51556;50.002;22.014;2023-07-13T08:48:56;98887.41;;;26.80;63.48
65010;BME280;51556;50.002;22.014;2023-07-13T08:51:41;98881.44;;;26.92;63.86
65010;BME280;51556;50.002;22.014;2023-07-13T08:54:16;98874.84;;;27.06;62.91
65010;BME280;51556;50.002;22.014;2023-07-13T08:56:45;98864.67;;;27.17;63.12
65010;BME280;51556;50.002;22.014;2023-07-13T08:59:17;98855.70;;;27.25;63.53
65010;BME280;51556;50.002;22.014;2023-07-13T09:04:28;98848.00;;;27.36;62.20
65010;BME280;51556;50.002;22.014;2023-07-13T09:07:34;98844.31;;;27.36;62.23
65010;BME280;51556;50.002;22.014;2023-07-13T09:10:15;98842.95;;;27.41;61.88
65010;BME280;51556;50.002;22.014;2023-07-13T09:15:44;98838.65;;;27.44;61.02
65010;BME280;51556;50.002;22.014;2023-07-13T09:18:14;98839.50;;;27.44;60.46
65010;BME280;51556;50.002;22.014;2023-07-13T09:20:49;98847.35;;;27.43;60.38
65010;BME280;51556;50.002;22.014;2023-07-13T09:23:20;98847.89;;;27.43;60.14
65010;BME280;51556;50.002;22.014;2023-07-13T09:26:04;98842.84;;;27.43;60.01
65010;BME280;51556;50.002;22.014;2023-07-13T09:28:37;98837.33;;;27.48;60.13
65010;BME280;51556;50.002;22.014;2023-07-13T09:46:42;98815.29;;;27.56;59.22
65010;BME280;51556;50.002;22.014;2023-07-13T09:49:14;98812.52;;;27.62;59.45
65010;BME280;51556;50.002;22.014;2023-07-13T09:52:29;98806.10;;;27.72;59.45
65010;BME280;51556;50.002;22.014;2023-07-13T09:54:55;98809.91;;;27.80;59.42
65010;BME280;51556;50.002;22.014;2023-07-13T09:58:32;98809.09;;;27.72;59.74
65010;BME280;51556;50.002;22.014;2023-07-13T10:01:12;98811.85;;;27.65;59.64
65010;BME280;51556;50.002;22.014;2023-07-13T10:03:54;98809.58;;;27.69;59.78
65010;BME280;51556;50.002;22.014;2023-07-13T10:06:26;98808.36;;;27.76;59.81
65010;BME280;51556;50.002;22.014;2023-07-13T10:08:52;98804.85;;;27.83;59.69
65010;BME280;51556;50.002;22.014;2023-07-13T10:11:25;98801.92;;;27.88;59.22
65010;BME280;51556;50.002;22.014;2023-07-13T10:14:25;98799.34;;;27.92;59.19
65010;BME280;51556;50.002;22.014;2023-07-13T10:17:12;98796.11;;;27.99;58.39
65010;BME280;51556;50.002;22.014;2023-07-13T10:19:41;98796.51;;;28.01;55.86
65010;BME280;51556;50.002;22.014;2023-07-13T10:22:31;98793.04;;;27.93;55.28
65010;BME280;51556;50.002;22.014;2023-07-13T10:28:30;98785.30;;;28.01;55.34
65010;BME280;51556;50.002;22.014;2023-07-13T10:31:12;98786.27;;;28.03;56.00
65010;BME280;51556;50.002;22.014;2023-07-13T10:33:39;98786.66;;;28.08;56.11
65010;BME280;51556;50.002;22.014;2023-07-13T10:36:53;98782.02;;;28.16;55.59
65010;BME280;51556;50.002;22.014;2023-07-13T10:39:34;98776.36;;;28.26;56.06
65010;BME280;51556;50.002;22.014;2023-07-13T10:42:04;98776.45;;;28.32;55.03
65010;BME280;51556;50.002;22.014;2023-07-13T10:44:52;98775.11;;;28.38;55.03
65010;BME280;51556;50.002;22.014;2023-07-13T10:47:29;98779.16;;;28.45;54.54
65010;BME280;51556;50.002;22.014;2023-07-13T10:50:27;98780.69;;;28.40;54.35
65010;BME280;51556;50.002;22.014;2023-07-13T10:53:03;98780.36;;;28.33;54.14
65010;BME280;51556;50.002;22.014;2023-07-13T10:59:17;98777.59;;;28.26;54.35
65010;BME280;51556;50.002;22.014;2023-07-13T11:02:23;98780.98;;;28.30;54.40
65010;BME280;51556;50.002;22.014;2023-07-13T11:05:28;98781.76;;;28.28;53.74
65010;BME280;51556;50.002;22.014;2023-07-13T11:14:29;98761.42;;;28.24;54.11
65010;BME280;51556;50.002;22.014;2023-07-13T11:16:56;98760.77;;;28.23;54.37
65010;BME280;51556;50.002;22.014;2023-07-13T11:19:52;98760.83;;;28.21;54.06
65010;BME280;51556;50.002;22.014;2023-07-13T11:22:26;98761.11;;;28.13;54.18
65010;BME280;51556;50.002;22.014;2023-07-13T11:33:17;98752.98;;;27.91;54.73
65010;BME280;51556;50.002;22.014;2023-07-13T11:42:00;98772.30;;;27.71;55.81
65010;BME280;51556;50.002;22.014;2023-07-13T11:44:32;98771.60;;;27.68;56.49
65010;BME280;51556;50.002;22.014;2023-07-13T11:47:27;98768.52;;;27.64;57.37
65010;BME280;51556;50.002;22.014;2023-07-13T11:49:56;98766.55;;;27.62;57.45
65010;BME280;51556;50.002;22.014;2023-07-13T11:52:28;98769.76;;;27.61;57.75
65010;BME280;51556;50.002;22.014;2023-07-13T11:55:15;98778.49;;;27.57;58.60
65010;BME280;51556;50.002;22.014;2023-07-13T11:58:01;98784.48;;;27.46;59.41
65010;BME280;51556;50.002;22.014;2023-07-13T12:03:24;98789.02;;;26.99;61.44
65010;BME280;51556;50.002;22.014;2023-07-13T12:06:19;98794.98;;;26.76;62.38
65010;BME280;51556;50.002;22.014;2023-07-13T12:08:43;98790.86;;;26.45;63.14
65010;BME280;51556;50.002;22.014;2023-07-13T12:11:16;98785.05;;;26.09;63.79
65010;BME280;51556;50.002;22.014;2023-07-13T12:13:44;98782.36;;;25.76;64.76
65010;BME280;51556;50.002;22.014;2023-07-13T12:16:23;98778.17;;;25.54;65.85
65010;BME280;51556;50.002;22.014;2023-07-13T12:18:51;98772.27;;;25.35;66.62
65010;BME280;51556;50.002;22.014;2023-07-13T12:21:48;98774.45;;;25.10;67.36
65010;BME280;51556;50.002;22.014;2023-07-13T12:24:18;98779.11;;;24.97;68.22
65010;BME280;51556;50.002;22.014;2023-07-13T12:26:44;98785.04;;;24.88;68.19
65010;BME280;51556;50.002;22.014;2023-07-13T12:29:17;98782.22;;;24.82;67.79
65010;BME280;51556;50.002;22.014;2023-07-13T12:31:49;98782.36;;;24.78;67.81
65010;BME280;51556;50.002;22.014;2023-07-13T12:34:22;98778.05;;;24.76;68.29
65010;BME280;51556;50.002;22.014;2023-07-13T12:36:59;98774.34;;;24.77;68.39
65010;BME280;51556;50.002;22.014;2023-07-13T12:39:45;98769.96;;;24.78;69.21
65010;BME280;51556;50.002;22.014;2023-07-13T12:42:25;98764.23;;;24.78;68.30
65010;BME280;51556;50.002;22.014;2023-07-13T12:45:21;98765.70;;;24.73;68.00
65010;BME280;51556;50.002;22.014;2023-07-13T12:48:26;98763.34;;;24.70;68.26
65010;BME280;51556;50.002;22.014;2023-07-13T12:50:50;98767.98;;;24.72;68.48
65010;BME280;51556;50.002;22.014;2023-07-13T12:53:23;98763.52;;;24.74;68.86
65010;BME280;51556;50.002;22.014;2023-07-13T12:55:51;98767.73;;;24.79;69.38
65010;BME280;51556;50.002;22.014;2023-07-13T12:58:38;98778.60;;;24.87;69.53
65010;BME280;51556;50.002;22.014;2023-07-13T13:01:05;98790.41;;;24.93;70.11
65010;BME280;51556;50.002;22.014;2023-07-13T13:03:34;98797.48;;;25.01;70.46
65010;BME280;51556;50.002;22.014;2023-07-13T13:06:06;98799.16;;;25.10;70.66
65010;BME280;51556;50.002;22.014;2023-07-13T13:08:32;98798.56;;;25.14;70.77
65010;BME280;51556;50.002;22.014;2023-07-13T13:10:58;98795.63;;;25.19;70.85
65010;BME280;51556;50.002;22.014;2023-07-13T13:13:24;98799.89;;;25.21;70.02
65010;BME280;51556;50.002;22.014;2023-07-13T13:15:50;98793.16;;;25.16;70.04
65010;BME280;51556;50.002;22.014;2023-07-13T13:18:21;98788.91;;;25.17;70.11
65010;BME280;51556;50.002;22.014;2023-07-13T13:20:48;98787.56;;;25.24;71.03
65010;BME280;51556;50.002;22.014;2023-07-13T13:23:16;98783.80;;;25.27;71.21
65010;BME280;51556;50.002;22.014;2023-07-13T13:25:49;98789.19;;;25.27;71.22
65010;BME280;51556;50.002;22.014;2023-07-13T13:28:17;98792.73;;;25.24;70.89
65010;BME280;51556;50.002;22.014;2023-07-13T13:31:04;98796.65;;;25.16;70.18
65010;BME280;51556;50.002;22.014;2023-07-13T13:33:43;98808.58;;;24.92;69.30
65010;BME280;51556;50.002;22.014;2023-07-13T13:36:24;98823.34;;;24.75;69.35
65010;BME280;51556;50.002;22.014;2023-07-13T13:38:52;98834.21;;;24.64;69.40
65010;BME280;51556;50.002;22.014;2023-07-13T13:44:27;98862.95;;;24.33;69.71
65010;BME280;51556;50.002;22.014;2023-07-13T13:47:42;98879.04;;;24.24;70.24
65010;BME280;51556;50.002;22.014;2023-07-13T13:50:29;98897.48;;;24.07;70.32
65010;BME280;51556;50.002;22.014;2023-07-13T13:52:57;98903.33;;;23.91;70.44
65010;BME280;51556;50.002;22.014;2023-07-13T13:55:41;98905.59;;;23.78;70.80
65010;BME280;51556;50.002;22.014;2023-07-13T13:58:10;98908.89;;;23.54;70.70
65010;BME280;51556;50.002;22.014;2023-07-13T14:00:39;98915.98;;;23.32;70.80
65010;BME280;51556;50.002;22.014;2023-07-13T14:03:05;98928.15;;;23.13;70.98
65010;BME280;51556;50.002;22.014;2023-07-13T14:05:32;98929.48;;;22.93;70.98